Buoy 46770

sailwx.info

Track history (hours):
 
Tides and Currents Weather Stations Pressure Air Temp Water Temp Dewpoint Dewpoint Depression Visibility Wind Speed Wind Dir Waves Ship Positions

Drifting buoy 46770

Last reported at 2017-Feb-23 01:00 UTC. Time now 2017-Feb-23 02:42 UTC.
Position N 39°43' W 135°17'.

Barometer 1036.0 mb
Water temperature 11.9 ° C

Date/timePositionNaut miles runAvg speedWind from/ knotsBaromVisibWave heightAir tempDewpointWater temp
2017-Feb-23 01:00N 39°43' W 135°17'1 1.3 1036.0 11.9
2017-Feb-23 00:00N 39°44' W 135°16'1 0.9 1035.9 11.9
2017-Feb-22 23:00N 39°44' W 135°15'0 0.0 1035.9 11.9
2017-Feb-22 22:00N 39°44' W 135°15'1 1.3 1036.1 11.9
2017-Feb-22 21:00N 39°45' W 135°14'1 0.4 1036.2 11.8
2017-Feb-22 18:00N 39°46' W 135°13'1 0.9 1035.6 11.8
2017-Feb-22 17:00N 39°46' W 135°12'1 0.6 1035.0 11.8
2017-Feb-22 16:00N 39°46' W 135°12'0 0.5 1034.6 11.9
2017-Feb-22 15:00N 39°46' W 135°11'0 0.0 1034.1 11.9
2017-Feb-22 14:00N 39°46' W 135°11'1 1.1 1033.6 11.9
2017-Feb-22 13:00N 39°47' W 135°10'3 2.6 1032.9 11.9
2017-Feb-22 12:00N 39°49' W 135°08'2 2.0 1032.8 11.9
2017-Feb-22 11:00N 39°47' W 135°09'2 2.0 1032.6 11.9
2017-Feb-22 10:00N 39°49' W 135°08'0 0.2 1032.2 11.9
2017-Feb-22 07:00N 39°49' W 135°07'0 0.0 1030.8 11.9
2017-Feb-22 06:00N 39°49' W 135°07'2 1.5 1030.0 11.9
2017-Feb-22 05:00N 39°49' W 135°05'0 0.5 1028.9 12.0
2017-Feb-22 04:00N 39°49' W 135°05'0 0.5 1028.3 12.0
2017-Feb-22 03:00N 39°49' W 135°04'0 0.0 1027.6 12.0
2017-Feb-22 02:00N 39°49' W 135°04'1 0.8 1026.8 12.0
2017-Feb-22 01:00N 39°50' W 135°04'0 0.0 1026.0 12.1
2017-Feb-22 00:00N 39°50' W 135°04'0 0.0 1025.3 12.1
2017-Feb-21 23:00N 39°50' W 135°04'1 0.8 1024.9 12.0
2017-Feb-21 22:00N 39°50' W 135°03'0 0.0 1024.7 12.0
2017-Feb-21 20:00N 39°50' W 135°03'1 0.8 1024.5 11.9
2017-Feb-21 19:00N 39°51' W 135°04'1 0.6 1023.9 12.0
2017-Feb-21 18:00N 39°50' W 135°04'0 0.5 1023.1 11.9
2017-Feb-21 17:00N 39°50' W 135°04'1 1.1 1022.1 11.8
2017-Feb-21 16:00N 39°50' W 135°03'1 0.9 1021.2 11.7
2017-Feb-21 15:00N 39°50' W 135°04'1 0.9 1020.9 11.6
2017-Feb-21 14:00N 39°50' W 135°03'0 0.0 1020.2 11.6
2017-Feb-21 13:00N 39°50' W 135°03'1 0.6 1019.5 11.6
2017-Feb-21 12:00N 39°49' W 135°03'2 0.9 1019.1 11.5
2017-Feb-21 10:00N 39°51' W 135°02'0 0.0 1018.4 11.5
2017-Feb-21 07:00N 39°51' W 135°02'2 1.5 1016.2 11.8
2017-Feb-21 06:00N 39°52' W 135°01'1 0.8 1015.2 12.0
2017-Feb-21 05:00N 39°53' W 135°02'0 0.5 1014.4 12.1
2017-Feb-21 04:00N 39°53' W 135°01'1 1.2 1013.2 12.2
2017-Feb-21 03:00N 39°54' W 135°01'0 0.5 1012.1 12.2
2017-Feb-21 02:00N 39°54' W 135°02'1 0.6 1011.2 12.2
2017-Feb-21 01:00N 39°55' W 135°02'0 0.5 1010.2 12.2
2017-Feb-21 00:00N 39°55' W 135°01'0 0.5 1009.6 12.1
2017-Feb-20 23:00N 39°55' W 135°02'1 1.3 1008.9 11.9
2017-Feb-20 22:00N 39°56' W 135°01'0 0.0 1008.3 11.8
2017-Feb-20 21:00N 39°56' W 135°01'0 0.0 1007.8 11.8
2017-Feb-20 20:00N 39°56' W 135°01'1 1.2 1007.6 11.8
2017-Feb-20 19:00N 39°57' W 135°01'2 0.8 1006.6 11.6
2017-Feb-20 17:00N 39°58' W 134°59'0 0.5 1004.4 11.8
2017-Feb-20 16:00N 39°58' W 135°00'1 0.9 1003.1 11.8
2017-Feb-20 15:00N 39°58' W 134°59'1 1.1 1002.6 11.9
2017-Feb-20 14:00N 39°58' W 134°58'0 0.5 1002.0 11.9
2017-Feb-20 13:00N 39°58' W 134°57'1 1.2 1001.6 11.9
2017-Feb-20 12:00N 39°59' W 134°57'1 0.8 1001.3 11.9
2017-Feb-20 11:00N 39°59' W 134°56'1 0.8 1000.9 11.9
2017-Feb-20 10:00N 39°59' W 134°57'1 0.2 1000.6 11.9
2017-Feb-20 07:00N 40°00' W 134°57'0 0.0 999.8 11.9
2017-Feb-20 06:00N 40°00' W 134°57'1 0.6 999.3 11.9
2017-Feb-20 05:00N 40°01' W 134°57'1 0.6 998.8 11.9
2017-Feb-20 04:00N 40°00' W 134°57'1 0.6 998.3 11.9
2017-Feb-20 03:00N 39°59' W 134°57'1 0.6 997.8 11.9
2017-Feb-20 02:00N 39°59' W 134°57'0 0.0 997.4 11.9
2017-Feb-20 01:00N 39°59' W 134°57'1 0.9 997.0 12.0
2017-Feb-20 00:00N 39°59' W 134°56'0 0.0 997.3 12.0
2017-Feb-19 23:00N 39°59' W 134°56'0 0.0 997.3 12.0
2017-Feb-19 22:00N 39°59' W 134°56'2 0.5 997.9 12.0
2017-Feb-19 19:00N 40°00' W 134°55'0 0.0 1000.0 11.9
2017-Feb-19 18:00N 40°00' W 134°55'0 0.0 999.8 11.9
2017-Feb-19 17:00N 40°00' W 134°55'1 1.4 999.8 11.9
2017-Feb-19 16:00N 40°00' W 134°56'0 0.0 999.8 11.9
2017-Feb-19 15:00N 40°00' W 134°56'0 0.5 999.5 11.9
2017-Feb-19 14:00N 40°00' W 134°57'0 0.0 999.3 11.9
2017-Feb-19 13:00N 40°00' W 134°57'1 1.4 999.4 11.9
2017-Feb-19 12:00N 40°00' W 134°59'0 0.0 999.7 11.9
2017-Feb-19 11:00N 40°00' W 134°59'0 0.0 999.7 11.9
2017-Feb-19 10:00N 40°00' W 134°59'2 0.6 999.6 11.9
2017-Feb-19 07:00N 39°59' W 135°01'2 1.5 1000.1 12.0
2017-Feb-19 06:00N 40°00' W 135°03'1 0.8 1000.0 12.0
2017-Feb-19 05:00N 39°59' W 135°04'1 1.3 999.8 12.0
2017-Feb-19 04:00N 40°01' W 135°03'1 1.1 999.5 12.0
2017-Feb-19 03:00N 40°00' W 135°04'0 0.0 999.2 12.0
2017-Feb-19 02:00N 40°00' W 135°04'1 1.1 999.0 12.0
2017-Feb-19 01:00N 40°01' W 135°05'0 0.0 999.0 12.0
2017-Feb-19 00:00N 40°01' W 135°05'1 1.1 999.1 12.0
2017-Feb-18 23:00N 40°01' W 135°07'0 0.0 999.4 12.0
2017-Feb-18 22:00N 40°01' W 135°07'3 3.2 1000.3 12.0
2017-Feb-18 21:00N 40°01' W 135°11'1 0.3 1000.7 12.0
2017-Feb-18 19:00N 40°01' W 135°11'1 1.1 1001.7 12.0
2017-Feb-18 18:00N 40°01' W 135°12'1 0.8 1001.8 11.9
2017-Feb-18 17:00N 40°01' W 135°13'1 1.1 1001.3 11.9
2017-Feb-18 16:00N 40°01' W 135°14'1 1.2 1002.0 11.8
2017-Feb-18 15:00N 40°00' W 135°14'2 1.9 1000.6 11.8
2017-Feb-18 14:00N 39°58' W 135°14'0 0.5 1002.8 11.8
2017-Feb-18 13:00N 39°58' W 135°14'1 1.3 1005.2 11.8
2017-Feb-18 12:00N 39°57' W 135°14'2 1.5 1007.4 11.8
2017-Feb-18 11:00N 39°56' W 135°16'2 1.5 1009.2 11.8
2017-Feb-18 10:00N 39°57' W 135°14'2 0.5 1010.8 11.9
2017-Feb-18 07:00N 39°56' W 135°16'0 0.0 1012.9 12.1
2017-Feb-18 06:00N 39°56' W 135°16'1 0.6 1013.5 12.0
2017-Feb-18 05:00N 39°57' W 135°16'0 0.0 1013.5 12.0
2017-Feb-18 04:00N 39°57' W 135°16'0 0.5 1014.0 12.0
2017-Feb-18 03:00N 39°57' W 135°17'1 0.6 1013.8 12.1
2017-Feb-18 02:00N 39°58' W 135°17'1 1.3 1013.2 12.1
2017-Feb-18 01:00N 39°59' W 135°16'0 0.0 1013.5 12.1
2017-Feb-18 00:00N 39°59' W 135°16'1 0.6 1012.6 12.1
2017-Feb-17 23:00N 39°59' W 135°16'0 0.0 1012.9 12.1
2017-Feb-17 22:00N 39°59' W 135°16'4 1.2 1013.9 12.1
2017-Feb-17 19:00N 40°03' W 135°17'1 0.6 1013.0 12.2
2017-Feb-17 18:00N 40°04' W 135°17'0 0.0 1013.1 12.1
2017-Feb-17 17:00N 40°04' W 135°17'1 1.2 1012.1 12.1
2017-Feb-17 16:00N 40°05' W 135°17'1 1.2 1011.1 12.1
2017-Feb-17 15:00N 40°06' W 135°17'0 0.0 1010.5 12.1
2017-Feb-17 14:00N 40°06' W 135°17'1 0.6 1009.3 12.1
2017-Feb-17 13:00N 40°07' W 135°17'1 1.3 1008.6 12.1
2017-Feb-17 12:00N 40°08' W 135°18'3 3.1 1008.1 12.1
2017-Feb-17 11:00N 40°11' W 135°17'0 0.0 1007.7 12.1
2017-Feb-17 07:00N 40°11' W 135°17'2 0.9 1005.0 12.1
2017-Feb-17 05:00N 40°12' W 135°15'1 1.3 1003.7 12.1
2017-Feb-17 04:00N 40°13' W 135°14'0 0.0 1003.7 12.1
2017-Feb-17 03:00N 40°13' W 135°14'1 1.5 1003.5 12.1
2017-Feb-17 02:00N 40°14' W 135°13'1 0.6 1003.2 12.1
2017-Feb-17 01:00N 40°14' W 135°13'0 0.0 1003.3 12.2
2017-Feb-17 00:00N 40°14' W 135°13'1 1.2 1003.6 12.2
2017-Feb-16 23:00N 40°13' W 135°13'1 1.2 1004.4 12.1
2017-Feb-16 22:00N 40°14' W 135°13'2 0.9 1004.9 12.2
2017-Feb-16 20:00N 40°13' W 135°13'0 0.0 1006.5 12.2
2017-Feb-16 18:00N 40°13' W 135°13'1 0.9 1006.6 12.1
2017-Feb-16 17:00N 40°13' W 135°14'0 0.0 1006.8 12.1
2017-Feb-16 16:00N 40°13' W 135°14'0 0.5 1006.3 12.1
2017-Feb-16 15:00N 40°13' W 135°14'0 0.5 1005.7 12.1
2017-Feb-16 14:00N 40°13' W 135°14'1 1.1 1005.8 12.1
2017-Feb-16 13:00N 40°13' W 135°16'0 0.0 1004.9 12.1
2017-Feb-16 12:00N 40°13' W 135°16'3 3.3 1004.6 12.0
2017-Feb-16 11:00N 40°14' W 135°20'1 0.2 1004.3 12.0
2017-Feb-16 06:00N 40°14' W 135°21'0 0.5 999.7 12.0
2017-Feb-16 05:00N 40°14' W 135°22'3 3.0 997.6 12.1
2017-Feb-16 04:00N 40°16' W 135°25'1 0.6 994.0 12.1
2017-Feb-16 03:00N 40°16' W 135°25'1 0.8 989.1 12.1
2017-Feb-16 02:00N 40°16' W 135°26'1 1.3 990.1 12.1
2017-Feb-16 01:00N 40°14' W 135°26'1 0.8 991.1 12.1
2017-Feb-16 00:00N 40°15' W 135°27'0 0.0 991.6 12.2
2017-Feb-15 23:00N 40°15' W 135°27'1 1.1 991.8 12.2
2017-Feb-15 22:00N 40°14' W 135°28'1 1.5 992.5 12.2
2017-Feb-15 21:00N 40°15' W 135°30'2 1.8 993.3 12.1
2017-Feb-15 20:00N 40°15' W 135°32'0 0.2 993.8 12.1
2017-Feb-15 18:00N 40°15' W 135°33'0 0.5 992.9 12.1
2017-Feb-15 17:00N 40°15' W 135°34'3 3.2 991.7 12.1
2017-Feb-15 16:00N 40°15' W 135°38'1 1.3 990.5 12.1
2017-Feb-15 15:00N 40°14' W 135°37'3 2.6 988.8 12.1
2017-Feb-15 14:00N 40°12' W 135°40'2 1.5 989.3 12.0
2017-Feb-15 13:00N 40°11' W 135°38'1 0.8 990.3 12.0
2017-Feb-15 12:00N 40°10' W 135°39'3 2.8 991.8 12.0
2017-Feb-15 11:00N 40°08' W 135°37'0 0.0 992.9 12.0
2017-Feb-15 07:00N 40°08' W 135°37'0 0.5 998.6 12.2
2017-Feb-15 06:00N 40°08' W 135°37'1 0.9 999.2 12.2
2017-Feb-15 05:00N 40°08' W 135°38'1 0.9 999.4 12.2
2017-Feb-15 04:00N 40°08' W 135°39'0 0.5 999.1 12.2
2017-Feb-15 03:00N 40°08' W 135°40'1 0.8 997.9 12.2
2017-Feb-15 02:00N 40°07' W 135°40'2 1.5 998.4 12.2
2017-Feb-15 01:00N 40°06' W 135°41'0 0.0 997.4 12.2
2017-Feb-15 00:00N 40°06' W 135°41'3 2.6 997.1 12.2
2017-Feb-14 23:00N 40°04' W 135°44'0 0.0 996.9 12.2
2017-Feb-14 22:00N 40°04' W 135°44'0 0.0 996.5 12.2
2017-Feb-14 21:00N 40°04' W 135°44'3 3.0 996.6 12.2
2017-Feb-14 20:00N 40°01' W 135°43'1 1.1 997.5 12.2
2017-Feb-14 19:00N 40°01' W 135°44'0 0.0 998.2 12.2
2017-Feb-14 18:00N 40°01' W 135°44'2 2.4 997.6 12.2
2017-Feb-14 17:00N 39°58' W 135°44'0 0.0 998.1 12.2
2017-Feb-14 16:00N 39°58' W 135°44'1 0.6 999.0 12.2
2017-Feb-14 15:00N 39°58' W 135°44'0 0.5 999.1 12.2
2017-Feb-14 14:00N 39°58' W 135°43'1 1.1 999.5 12.2
2017-Feb-14 13:00N 39°57' W 135°44'3 3.0 1000.2 12.2
2017-Feb-14 12:00N 39°55' W 135°47'4 3.7 1001.4 12.2
2017-Feb-14 11:00N 39°57' W 135°43'4 1.0 1001.8 12.2
2017-Feb-14 07:00N 39°54' W 135°47'2 1.5 1003.4 12.2
2017-Feb-14 06:00N 39°53' W 135°48'2 1.5 1004.0 12.2
2017-Feb-14 05:00N 39°52' W 135°47'0 0.0 1002.3 12.2
2017-Feb-14 04:00N 39°52' W 135°47'1 0.6 1003.8 12.2
2017-Feb-14 03:00N 39°51' W 135°47'0 0.0 1004.9 12.2
2017-Feb-14 02:00N 39°51' W 135°47'1 0.8 1004.8 12.2
2017-Feb-14 01:00N 39°50' W 135°47'1 1.2 1004.6 12.2
2017-Feb-14 00:00N 39°49' W 135°47'1 1.3 1004.7 12.2
2017-Feb-13 23:00N 39°48' W 135°47'0 0.0 1005.0 12.2
2017-Feb-13 22:00N 39°48' W 135°47'1 0.6 1005.9 12.2
2017-Feb-13 21:00N 39°47' W 135°47'1 0.6 1007.4 12.2
2017-Feb-13 19:00N 39°46' W 135°46'0 0.0 1010.0 12.2
2017-Feb-13 18:00N 39°46' W 135°46'0 0.0 1010.8 12.2
2017-Feb-13 17:00N 39°46' W 135°46'1 0.8 1011.7 12.2
2017-Feb-13 16:00N 39°46' W 135°47'0 0.0 1011.8 12.2
2017-Feb-13 15:00N 39°46' W 135°47'0 0.5 1012.2 12.0
2017-Feb-13 14:00N 39°46' W 135°47'2 1.5 1012.1 12.0
2017-Feb-13 13:00N 39°45' W 135°49'4 3.7 1012.5 12.0
2017-Feb-13 12:00N 39°41' W 135°48'4 3.7 1012.1 12.0
2017-Feb-13 11:00N 39°45' W 135°49'4 3.7 1012.4 12.1
2017-Feb-13 10:00N 39°41' W 135°48'2 0.5 1013.2 12.1
2017-Feb-13 06:00N 39°40' W 135°48'1 1.1 1018.4 12.0
2017-Feb-13 05:00N 39°39' W 135°47'1 0.8 1019.5 12.0
2017-Feb-13 04:00N 39°38' W 135°46'1 0.8 1019.6 12.0
2017-Feb-13 03:00N 39°38' W 135°46'1 0.6 1020.0 12.0
2017-Feb-13 02:00N 39°37' W 135°46'1 0.6 1020.3 12.0
2017-Feb-13 01:00N 39°37' W 135°46'   1020.9 12.0
Track history (hours):
 
Tides and Currents Weather Stations Pressure Air Temp Water Temp Dewpoint Dewpoint Depression Visibility Wind Speed Wind Dir Waves Ship Positions

Drifting buoy 46770

Last reported at 2017-Feb-23 01:00 UTC. Time now 2017-Feb-23 02:42 UTC.
Position N 39°43' W 135°17'.

Barometer 1036.0 mb
Water temperature 11.9 ° C

Date/timePositionNaut miles runAvg speedWind from/ knotsBaromVisibWave heightAir tempDewpointWater temp
2017-Feb-23 01:00N 39°43' W 135°17'1 1.3 1036.0 11.9
2017-Feb-23 00:00N 39°44' W 135°16'1 0.9 1035.9 11.9
2017-Feb-22 23:00N 39°44' W 135°15'0 0.0 1035.9 11.9
2017-Feb-22 22:00N 39°44' W 135°15'1 1.3 1036.1 11.9
2017-Feb-22 21:00N 39°45' W 135°14'1 0.4 1036.2 11.8
2017-Feb-22 18:00N 39°46' W 135°13'1 0.9 1035.6 11.8
2017-Feb-22 17:00N 39°46' W 135°12'1 0.6 1035.0 11.8
2017-Feb-22 16:00N 39°46' W 135°12'0 0.5 1034.6 11.9
2017-Feb-22 15:00N 39°46' W 135°11'0 0.0 1034.1 11.9
2017-Feb-22 14:00N 39°46' W 135°11'1 1.1 1033.6 11.9
2017-Feb-22 13:00N 39°47' W 135°10'3 2.6 1032.9 11.9
2017-Feb-22 12:00N 39°49' W 135°08'2 2.0 1032.8 11.9
2017-Feb-22 11:00N 39°47' W 135°09'2 2.0 1032.6 11.9
2017-Feb-22 10:00N 39°49' W 135°08'0 0.2 1032.2 11.9
2017-Feb-22 07:00N 39°49' W 135°07'0 0.0 1030.8 11.9
2017-Feb-22 06:00N 39°49' W 135°07'2 1.5 1030.0 11.9
2017-Feb-22 05:00N 39°49' W 135°05'0 0.5 1028.9 12.0
2017-Feb-22 04:00N 39°49' W 135°05'0 0.5 1028.3 12.0
2017-Feb-22 03:00N 39°49' W 135°04'0 0.0 1027.6 12.0
2017-Feb-22 02:00N 39°49' W 135°04'1 0.8 1026.8 12.0
2017-Feb-22 01:00N 39°50' W 135°04'0 0.0 1026.0 12.1
2017-Feb-22 00:00N 39°50' W 135°04'0 0.0 1025.3 12.1
2017-Feb-21 23:00N 39°50' W 135°04'1 0.8 1024.9 12.0
2017-Feb-21 22:00N 39°50' W 135°03'0 0.0 1024.7 12.0
2017-Feb-21 20:00N 39°50' W 135°03'1 0.8 1024.5 11.9
2017-Feb-21 19:00N 39°51' W 135°04'1 0.6 1023.9 12.0
2017-Feb-21 18:00N 39°50' W 135°04'0 0.5 1023.1 11.9
2017-Feb-21 17:00N 39°50' W 135°04'1 1.1 1022.1 11.8
2017-Feb-21 16:00N 39°50' W 135°03'1 0.9 1021.2 11.7
2017-Feb-21 15:00N 39°50' W 135°04'1 0.9 1020.9 11.6
2017-Feb-21 14:00N 39°50' W 135°03'0 0.0 1020.2 11.6
2017-Feb-21 13:00N 39°50' W 135°03'1 0.6 1019.5 11.6
2017-Feb-21 12:00N 39°49' W 135°03'2 0.9 1019.1 11.5
2017-Feb-21 10:00N 39°51' W 135°02'0 0.0 1018.4 11.5
2017-Feb-21 07:00N 39°51' W 135°02'2 1.5 1016.2 11.8
2017-Feb-21 06:00N 39°52' W 135°01'1 0.8 1015.2 12.0
2017-Feb-21 05:00N 39°53' W 135°02'0 0.5 1014.4 12.1
2017-Feb-21 04:00N 39°53' W 135°01'1 1.2 1013.2 12.2
2017-Feb-21 03:00N 39°54' W 135°01'0 0.5 1012.1 12.2
2017-Feb-21 02:00N 39°54' W 135°02'1 0.6 1011.2 12.2
2017-Feb-21 01:00N 39°55' W 135°02'0 0.5 1010.2 12.2
2017-Feb-21 00:00N 39°55' W 135°01'0 0.5 1009.6 12.1
2017-Feb-20 23:00N 39°55' W 135°02'1 1.3 1008.9 11.9
2017-Feb-20 22:00N 39°56' W 135°01'0 0.0 1008.3 11.8
2017-Feb-20 21:00N 39°56' W 135°01'0 0.0 1007.8 11.8
2017-Feb-20 20:00N 39°56' W 135°01'1 1.2 1007.6 11.8
2017-Feb-20 19:00N 39°57' W 135°01'2 0.8 1006.6 11.6
2017-Feb-20 17:00N 39°58' W 134°59'0 0.5 1004.4 11.8
2017-Feb-20 16:00N 39°58' W 135°00'1 0.9 1003.1 11.8
2017-Feb-20 15:00N 39°58' W 134°59'1 1.1 1002.6 11.9
2017-Feb-20 14:00N 39°58' W 134°58'0 0.5 1002.0 11.9
2017-Feb-20 13:00N 39°58' W 134°57'1 1.2 1001.6 11.9
2017-Feb-20 12:00N 39°59' W 134°57'1 0.8 1001.3 11.9
2017-Feb-20 11:00N 39°59' W 134°56'1 0.8 1000.9 11.9
2017-Feb-20 10:00N 39°59' W 134°57'1 0.2 1000.6 11.9
2017-Feb-20 07:00N 40°00' W 134°57'0 0.0 999.8 11.9
2017-Feb-20 06:00N 40°00' W 134°57'1 0.6 999.3 11.9
2017-Feb-20 05:00N 40°01' W 134°57'1 0.6 998.8 11.9
2017-Feb-20 04:00N 40°00' W 134°57'1 0.6 998.3 11.9
2017-Feb-20 03:00N 39°59' W 134°57'1 0.6 997.8 11.9
2017-Feb-20 02:00N 39°59' W 134°57'0 0.0 997.4 11.9
2017-Feb-20 01:00N 39°59' W 134°57'1 0.9 997.0 12.0
2017-Feb-20 00:00N 39°59' W 134°56'0 0.0 997.3 12.0
2017-Feb-19 23:00N 39°59' W 134°56'0 0.0 997.3 12.0
2017-Feb-19 22:00N 39°59' W 134°56'2 0.5 997.9 12.0
2017-Feb-19 19:00N 40°00' W 134°55'0 0.0 1000.0 11.9
2017-Feb-19 18:00N 40°00' W 134°55'0 0.0 999.8 11.9
2017-Feb-19 17:00N 40°00' W 134°55'1 1.4 999.8 11.9
2017-Feb-19 16:00N 40°00' W 134°56'0 0.0 999.8 11.9
2017-Feb-19 15:00N 40°00' W 134°56'0 0.5 999.5 11.9
2017-Feb-19 14:00N 40°00' W 134°57'0 0.0 999.3 11.9
2017-Feb-19 13:00N 40°00' W 134°57'1 1.4 999.4 11.9
2017-Feb-19 12:00N 40°00' W 134°59'0 0.0 999.7 11.9
2017-Feb-19 11:00N 40°00' W 134°59'0 0.0 999.7 11.9
2017-Feb-19 10:00N 40°00' W 134°59'2 0.6 999.6 11.9
2017-Feb-19 07:00N 39°59' W 135°01'2 1.5 1000.1 12.0
2017-Feb-19 06:00N 40°00' W 135°03'1 0.8 1000.0 12.0
2017-Feb-19 05:00N 39°59' W 135°04'1 1.3 999.8 12.0
2017-Feb-19 04:00N 40°01' W 135°03'1 1.1 999.5 12.0
2017-Feb-19 03:00N 40°00' W 135°04'0 0.0 999.2 12.0
2017-Feb-19 02:00N 40°00' W 135°04'1 1.1 999.0 12.0
2017-Feb-19 01:00N 40°01' W 135°05'0 0.0 999.0 12.0
2017-Feb-19 00:00N 40°01' W 135°05'1 1.1 999.1 12.0
2017-Feb-18 23:00N 40°01' W 135°07'0 0.0 999.4 12.0
2017-Feb-18 22:00N 40°01' W 135°07'3 3.2 1000.3 12.0
2017-Feb-18 21:00N 40°01' W 135°11'1 0.3 1000.7 12.0
2017-Feb-18 19:00N 40°01' W 135°11'1 1.1 1001.7 12.0
2017-Feb-18 18:00N 40°01' W 135°12'1 0.8 1001.8 11.9
2017-Feb-18 17:00N 40°01' W 135°13'1 1.1 1001.3 11.9
2017-Feb-18 16:00N 40°01' W 135°14'1 1.2 1002.0 11.8
2017-Feb-18 15:00N 40°00' W 135°14'2 1.9 1000.6 11.8
2017-Feb-18 14:00N 39°58' W 135°14'0 0.5 1002.8 11.8
2017-Feb-18 13:00N 39°58' W 135°14'1 1.3 1005.2 11.8
2017-Feb-18 12:00N 39°57' W 135°14'2 1.5 1007.4 11.8
2017-Feb-18 11:00N 39°56' W 135°16'2 1.5 1009.2 11.8
2017-Feb-18 10:00N 39°57' W 135°14'2 0.5 1010.8 11.9
2017-Feb-18 07:00N 39°56' W 135°16'0 0.0 1012.9 12.1
2017-Feb-18 06:00N 39°56' W 135°16'1 0.6 1013.5 12.0
2017-Feb-18 05:00N 39°57' W 135°16'0 0.0 1013.5 12.0
2017-Feb-18 04:00N 39°57' W 135°16'0 0.5 1014.0 12.0
2017-Feb-18 03:00N 39°57' W 135°17'1 0.6 1013.8 12.1
2017-Feb-18 02:00N 39°58' W 135°17'1 1.3 1013.2 12.1
2017-Feb-18 01:00N 39°59' W 135°16'0 0.0 1013.5 12.1
2017-Feb-18 00:00N 39°59' W 135°16'1 0.6 1012.6 12.1
2017-Feb-17 23:00N 39°59' W 135°16'0 0.0 1012.9 12.1
2017-Feb-17 22:00N 39°59' W 135°16'4 1.2 1013.9 12.1
2017-Feb-17 19:00N 40°03' W 135°17'1 0.6 1013.0 12.2
2017-Feb-17 18:00N 40°04' W 135°17'0 0.0 1013.1 12.1
2017-Feb-17 17:00N 40°04' W 135°17'1 1.2 1012.1 12.1
2017-Feb-17 16:00N 40°05' W 135°17'1 1.2 1011.1 12.1
2017-Feb-17 15:00N 40°06' W 135°17'0 0.0 1010.5 12.1
2017-Feb-17 14:00N 40°06' W 135°17'1 0.6 1009.3 12.1
2017-Feb-17 13:00N 40°07' W 135°17'1 1.3 1008.6 12.1
2017-Feb-17 12:00N 40°08' W 135°18'3 3.1 1008.1 12.1
2017-Feb-17 11:00N 40°11' W 135°17'0 0.0 1007.7 12.1
2017-Feb-17 07:00N 40°11' W 135°17'2 0.9 1005.0 12.1
2017-Feb-17 05:00N 40°12' W 135°15'1 1.3 1003.7 12.1
2017-Feb-17 04:00N 40°13' W 135°14'0 0.0 1003.7 12.1
2017-Feb-17 03:00N 40°13' W 135°14'1 1.5 1003.5 12.1
2017-Feb-17 02:00N 40°14' W 135°13'1 0.6 1003.2 12.1
2017-Feb-17 01:00N 40°14' W 135°13'0 0.0 1003.3 12.2
2017-Feb-17 00:00N 40°14' W 135°13'1 1.2 1003.6 12.2
2017-Feb-16 23:00N 40°13' W 135°13'1 1.2 1004.4 12.1
2017-Feb-16 22:00N 40°14' W 135°13'2 0.9 1004.9 12.2
2017-Feb-16 20:00N 40°13' W 135°13'0 0.0 1006.5 12.2
2017-Feb-16 18:00N 40°13' W 135°13'1 0.9 1006.6 12.1
2017-Feb-16 17:00N 40°13' W 135°14'0 0.0 1006.8 12.1
2017-Feb-16 16:00N 40°13' W 135°14'0 0.5 1006.3 12.1
2017-Feb-16 15:00N 40°13' W 135°14'0 0.5 1005.7 12.1
2017-Feb-16 14:00N 40°13' W 135°14'1 1.1 1005.8 12.1
2017-Feb-16 13:00N 40°13' W 135°16'0 0.0 1004.9 12.1
2017-Feb-16 12:00N 40°13' W 135°16'3 3.3 1004.6 12.0
2017-Feb-16 11:00N 40°14' W 135°20'1 0.2 1004.3 12.0
2017-Feb-16 06:00N 40°14' W 135°21'0 0.5 999.7 12.0
2017-Feb-16 05:00N 40°14' W 135°22'3 3.0 997.6 12.1
2017-Feb-16 04:00N 40°16' W 135°25'1 0.6 994.0 12.1
2017-Feb-16 03:00N 40°16' W 135°25'1 0.8 989.1 12.1
2017-Feb-16 02:00N 40°16' W 135°26'1 1.3 990.1 12.1
2017-Feb-16 01:00N 40°14' W 135°26'1 0.8 991.1 12.1
2017-Feb-16 00:00N 40°15' W 135°27'0 0.0 991.6 12.2
2017-Feb-15 23:00N 40°15' W 135°27'1 1.1 991.8 12.2
2017-Feb-15 22:00N 40°14' W 135°28'1 1.5 992.5 12.2
2017-Feb-15 21:00N 40°15' W 135°30'2 1.8 993.3 12.1
2017-Feb-15 20:00N 40°15' W 135°32'0 0.2 993.8 12.1
2017-Feb-15 18:00N 40°15' W 135°33'0 0.5 992.9 12.1
2017-Feb-15 17:00N 40°15' W 135°34'3 3.2 991.7 12.1
2017-Feb-15 16:00N 40°15' W 135°38'1 1.3 990.5 12.1
2017-Feb-15 15:00N 40°14' W 135°37'3 2.6 988.8 12.1
2017-Feb-15 14:00N 40°12' W 135°40'2 1.5 989.3 12.0
2017-Feb-15 13:00N 40°11' W 135°38'1 0.8 990.3 12.0
2017-Feb-15 12:00N 40°10' W 135°39'3 2.8 991.8 12.0
2017-Feb-15 11:00N 40°08' W 135°37'0 0.0 992.9 12.0
2017-Feb-15 07:00N 40°08' W 135°37'0 0.5 998.6 12.2
2017-Feb-15 06:00N 40°08' W 135°37'1 0.9 999.2 12.2
2017-Feb-15 05:00N 40°08' W 135°38'1 0.9 999.4 12.2
2017-Feb-15 04:00N 40°08' W 135°39'0 0.5 999.1 12.2
2017-Feb-15 03:00N 40°08' W 135°40'1 0.8 997.9 12.2
2017-Feb-15 02:00N 40°07' W 135°40'2 1.5 998.4 12.2
2017-Feb-15 01:00N 40°06' W 135°41'0 0.0 997.4 12.2
2017-Feb-15 00:00N 40°06' W 135°41'3 2.6 997.1 12.2
2017-Feb-14 23:00N 40°04' W 135°44'0 0.0 996.9 12.2
2017-Feb-14 22:00N 40°04' W 135°44'0 0.0 996.5 12.2
2017-Feb-14 21:00N 40°04' W 135°44'3 3.0 996.6 12.2
2017-Feb-14 20:00N 40°01' W 135°43'1 1.1 997.5 12.2
2017-Feb-14 19:00N 40°01' W 135°44'0 0.0 998.2 12.2
2017-Feb-14 18:00N 40°01' W 135°44'2 2.4 997.6 12.2
2017-Feb-14 17:00N 39°58' W 135°44'0 0.0 998.1 12.2
2017-Feb-14 16:00N 39°58' W 135°44'1 0.6 999.0 12.2
2017-Feb-14 15:00N 39°58' W 135°44'0 0.5 999.1 12.2
2017-Feb-14 14:00N 39°58' W 135°43'1 1.1 999.5 12.2
2017-Feb-14 13:00N 39°57' W 135°44'3 3.0 1000.2 12.2
2017-Feb-14 12:00N 39°55' W 135°47'4 3.7 1001.4 12.2
2017-Feb-14 11:00N 39°57' W 135°43'4 1.0 1001.8 12.2
2017-Feb-14 07:00N 39°54' W 135°47'2 1.5 1003.4 12.2
2017-Feb-14 06:00N 39°53' W 135°48'2 1.5 1004.0 12.2
2017-Feb-14 05:00N 39°52' W 135°47'0 0.0 1002.3 12.2
2017-Feb-14 04:00N 39°52' W 135°47'1 0.6 1003.8 12.2
2017-Feb-14 03:00N 39°51' W 135°47'0 0.0 1004.9 12.2
2017-Feb-14 02:00N 39°51' W 135°47'1 0.8 1004.8 12.2
2017-Feb-14 01:00N 39°50' W 135°47'1 1.2 1004.6 12.2
2017-Feb-14 00:00N 39°49' W 135°47'1 1.3 1004.7 12.2
2017-Feb-13 23:00N 39°48' W 135°47'0 0.0 1005.0 12.2
2017-Feb-13 22:00N 39°48' W 135°47'1 0.6 1005.9 12.2
2017-Feb-13 21:00N 39°47' W 135°47'1 0.6 1007.4 12.2
2017-Feb-13 19:00N 39°46' W 135°46'0 0.0 1010.0 12.2
2017-Feb-13 18:00N 39°46' W 135°46'0 0.0 1010.8 12.2
2017-Feb-13 17:00N 39°46' W 135°46'1 0.8 1011.7 12.2
2017-Feb-13 16:00N 39°46' W 135°47'0 0.0 1011.8 12.2
2017-Feb-13 15:00N 39°46' W 135°47'0 0.5 1012.2 12.0
2017-Feb-13 14:00N 39°46' W 135°47'2 1.5 1012.1 12.0
2017-Feb-13 13:00N 39°45' W 135°49'4 3.7 1012.5 12.0
2017-Feb-13 12:00N 39°41' W 135°48'4 3.7 1012.1 12.0
2017-Feb-13 11:00N 39°45' W 135°49'4 3.7 1012.4 12.1
2017-Feb-13 10:00N 39°41' W 135°48'2 0.5 1013.2 12.1
2017-Feb-13 06:00N 39°40' W 135°48'1 1.1 1018.4 12.0
2017-Feb-13 05:00N 39°39' W 135°47'1 0.8 1019.5 12.0
2017-Feb-13 04:00N 39°38' W 135°46'1 0.8 1019.6 12.0
2017-Feb-13 03:00N 39°38' W 135°46'1 0.6 1020.0 12.0
2017-Feb-13 02:00N 39°37' W 135°46'1 0.6 1020.3 12.0
2017-Feb-13 01:00N 39°37' W 135°46'   1020.9 12.0

Dump ship's entire track history